createdAt,value
2023-04-07T00:02:17.629Z,9.05
2023-04-07T00:04:46.210Z,9.02
2023-04-07T00:07:14.400Z,8.98
2023-04-07T00:09:43.720Z,8.91
2023-04-07T00:12:13.685Z,8.83
2023-04-07T00:14:41.952Z,8.77
2023-04-07T00:17:11.251Z,8.74
2023-04-07T00:19:42.490Z,8.68
2023-04-07T00:22:10.687Z,8.61
2023-04-07T00:24:42.965Z,8.56
2023-04-07T00:27:11.825Z,8.50
2023-04-07T00:29:39.954Z,8.51
2023-04-07T00:32:09.080Z,8.61
2023-04-07T00:34:37.208Z,8.71
2023-04-07T00:37:08.654Z,8.79
2023-04-07T00:39:37.180Z,8.81
2023-04-07T00:42:08.266Z,8.81
2023-04-07T00:44:36.528Z,8.79
2023-04-07T00:47:05.324Z,8.74
2023-04-07T00:49:33.807Z,8.70
2023-04-07T00:52:01.835Z,8.67
2023-04-07T00:54:30.442Z,8.64
2023-04-07T00:56:58.987Z,8.60
2023-04-07T00:59:27.315Z,8.57
2023-04-07T01:02:13.313Z,8.54
2023-04-07T01:04:47.996Z,8.52
2023-04-07T01:07:23.786Z,8.48
2023-04-07T01:10:04.016Z,8.44
2023-04-07T01:12:53.175Z,8.41
2023-04-07T01:15:23.238Z,8.40
2023-04-07T01:18:01.543Z,8.38
2023-04-07T01:20:30.492Z,8.36
2023-04-07T01:23:04.356Z,8.35
2023-04-07T01:25:53.414Z,8.34
2023-04-07T01:28:42.265Z,8.31
2023-04-07T01:31:10.877Z,8.29
2023-04-07T01:33:39.150Z,8.27
2023-04-07T01:36:08.533Z,8.28
2023-04-07T01:38:37.659Z,8.37
2023-04-07T01:41:06.067Z,8.46
2023-04-07T01:43:34.974Z,8.49
2023-04-07T01:46:03.314Z,8.52
2023-04-07T01:48:32.384Z,8.54
2023-04-07T01:51:00.845Z,8.56
2023-04-07T01:53:29.435Z,8.59
2023-04-07T01:55:57.881Z,8.57
2023-04-07T01:58:26.908Z,8.52
2023-04-07T02:00:55.418Z,8.47
2023-04-07T02:03:32.090Z,8.44
2023-04-07T02:06:03.139Z,8.43
2023-04-07T02:08:32.260Z,8.38
2023-04-07T02:11:01.211Z,8.34
2023-04-07T02:13:32.191Z,8.32
2023-04-07T02:16:01.684Z,8.31
2023-04-07T02:18:33.982Z,8.26
2023-04-07T02:21:02.409Z,8.20
2023-04-07T02:23:30.664Z,8.16
2023-04-07T02:25:59.038Z,8.15
2023-04-07T02:28:27.214Z,8.22
2023-04-07T02:30:55.629Z,8.30
2023-04-07T02:33:25.582Z,8.32
2023-04-07T02:35:53.814Z,8.31
2023-04-07T02:38:23.337Z,8.30
2023-04-07T02:40:51.547Z,8.30
2023-04-07T02:43:21.026Z,8.30
2023-04-07T02:45:49.119Z,8.31
2023-04-07T02:48:18.139Z,8.30
2023-04-07T02:50:46.301Z,8.27
2023-04-07T02:53:19.704Z,8.25
2023-04-07T02:55:47.662Z,8.24
2023-04-07T02:58:15.696Z,8.21
2023-04-07T03:00:45.478Z,8.16
2023-04-07T03:03:23.802Z,8.11
2023-04-07T03:06:00.144Z,8.05
2023-04-07T03:08:28.421Z,7.99
2023-04-07T03:10:58.621Z,8.02
2023-04-07T03:13:30.981Z,8.08
2023-04-07T03:16:06.901Z,8.07
2023-04-07T03:18:45.617Z,8.01
2023-04-07T03:21:14.152Z,7.92
2023-04-07T03:23:42.867Z,7.82
2023-04-07T03:26:11.348Z,7.71
2023-04-07T03:28:39.909Z,7.60
2023-04-07T03:31:09.315Z,7.51
2023-04-07T03:33:37.657Z,7.44
2023-04-07T03:36:06.342Z,7.38
2023-04-07T03:38:36.165Z,7.28
2023-04-07T03:41:05.521Z,7.19
2023-04-07T03:43:36.249Z,7.11
2023-04-07T03:46:04.862Z,7.03
2023-04-07T03:48:34.068Z,6.96
2023-04-07T03:51:06.406Z,6.89
2023-04-07T03:53:35.853Z,6.86
2023-04-07T03:56:14.534Z,6.91
2023-04-07T03:58:50.984Z,6.99
2023-04-07T04:01:31.981Z,7.05
2023-04-07T04:04:06.212Z,7.08
2023-04-07T04:06:37.145Z,7.10
2023-04-07T04:09:22.752Z,7.10
2023-04-07T04:11:51.225Z,7.08
2023-04-07T04:14:22.095Z,7.04
2023-04-07T04:16:55.499Z,7.01
2023-04-07T04:19:33.282Z,7.00
2023-04-07T04:22:04.277Z,6.98
2023-04-07T04:24:36.142Z,6.95
2023-04-07T04:27:05.458Z,6.90
2023-04-07T04:29:33.877Z,6.86
2023-04-07T04:32:02.959Z,6.81
2023-04-07T04:34:36.714Z,6.77
2023-04-07T04:37:06.610Z,6.75
2023-04-07T04:39:34.900Z,6.84
2023-04-07T04:42:05.844Z,6.97
2023-04-07T04:44:36.892Z,7.06
2023-04-07T04:47:14.713Z,7.11
2023-04-07T04:49:42.889Z,7.15
2023-04-07T04:52:11.209Z,7.16
2023-04-07T04:54:43.253Z,7.15
2023-04-07T04:57:12.323Z,7.14
2023-04-07T04:59:42.631Z,7.09
2023-04-07T05:02:12.608Z,7.07
2023-04-07T05:04:41.712Z,7.05
2023-04-07T05:07:20.592Z,7.03
2023-04-07T05:09:50.695Z,7.03
2023-04-07T05:12:19.137Z,7.02
2023-04-07T05:14:50.777Z,7.03
2023-04-07T05:17:21.201Z,7.05
2023-04-07T05:19:49.570Z,7.11
2023-04-07T05:22:28.749Z,7.24
2023-04-07T05:24:57.669Z,7.37
2023-04-07T05:27:26.061Z,7.49
2023-04-07T05:29:55.756Z,7.59
2023-04-07T05:32:28.415Z,7.66
2023-04-07T05:34:57.572Z,7.70
2023-04-07T05:37:32.199Z,7.68
2023-04-07T05:40:02.463Z,7.68
2023-04-07T05:42:31.405Z,7.74
2023-04-07T05:45:00.037Z,7.81
2023-04-07T05:47:28.818Z,7.87
2023-04-07T05:49:57.917Z,7.93
2023-04-07T05:52:26.984Z,7.97
2023-04-07T05:55:06.463Z,8.00
2023-04-07T05:57:36.630Z,8.03
2023-04-07T06:00:05.714Z,8.06
2023-04-07T06:02:46.456Z,8.08
2023-04-07T06:05:23.433Z,8.12
2023-04-07T06:07:55.603Z,8.23
2023-04-07T06:10:24.335Z,8.37
2023-04-07T06:12:52.721Z,8.51
2023-04-07T06:15:21.009Z,8.61
2023-04-07T06:17:51.003Z,8.67
2023-04-07T06:20:21.944Z,8.75
2023-04-07T06:22:55.084Z,8.79
2023-04-07T06:25:23.999Z,8.79
2023-04-07T06:27:54.341Z,8.79
2023-04-07T06:30:25.054Z,8.78
2023-04-07T06:32:54.107Z,8.79
2023-04-07T06:35:22.368Z,8.81
2023-04-07T06:37:54.581Z,8.84
2023-04-07T06:40:23.772Z,8.85
2023-04-07T06:42:52.385Z,8.88
2023-04-07T06:45:42.965Z,8.93
2023-04-07T06:48:11.193Z,8.97
2023-04-07T06:50:40.953Z,9.00
2023-04-07T06:53:09.295Z,9.02
2023-04-07T06:55:37.546Z,9.02
2023-04-07T06:58:05.979Z,9.03
2023-04-07T07:00:36.083Z,9.04
2023-04-07T07:03:08.826Z,9.07
2023-04-07T07:05:37.531Z,9.12
2023-04-07T07:08:06.057Z,9.15
2023-04-07T07:10:34.242Z,9.17
2023-04-07T07:13:02.505Z,9.17
2023-04-07T07:15:31.169Z,9.19
2023-04-07T07:17:59.407Z,9.24
2023-04-07T07:20:27.857Z,9.30
2023-04-07T07:22:56.817Z,9.36
2023-04-07T07:25:26.969Z,9.41
2023-04-07T07:27:55.147Z,9.44
2023-04-07T07:30:24.725Z,9.49
2023-04-07T07:32:55.101Z,9.54
2023-04-07T07:35:25.453Z,9.55
2023-04-07T07:37:55.393Z,9.57
2023-04-07T07:40:23.786Z,9.61
2023-04-07T07:42:52.823Z,9.65
2023-04-07T07:45:20.957Z,9.69
2023-04-07T07:47:49.085Z,9.75
2023-04-07T07:50:17.715Z,9.80
2023-04-07T07:52:46.322Z,9.84
2023-04-07T07:55:17.033Z,9.89
2023-04-07T07:57:45.924Z,9.91
2023-04-07T08:00:14.199Z,9.93
2023-04-07T08:02:44.872Z,9.95
2023-04-07T08:05:13.250Z,10.00
2023-04-07T08:07:43.248Z,10.08
2023-04-07T08:10:11.404Z,10.15
2023-04-07T08:12:48.070Z,10.22
2023-04-07T08:15:16.851Z,10.29
2023-04-07T08:17:45.346Z,10.34
2023-04-07T08:20:13.532Z,10.36
2023-04-07T08:22:43.906Z,10.41
2023-04-07T08:25:11.976Z,10.47
2023-04-07T08:27:42.519Z,10.49
2023-04-07T08:30:13.288Z,10.53
2023-04-07T08:32:46.645Z,10.59
2023-04-07T08:35:14.686Z,10.65
2023-04-07T08:37:44.378Z,10.71
2023-04-07T08:40:13.034Z,10.80
2023-04-07T08:42:43.225Z,10.84
2023-04-07T08:45:11.452Z,10.91
2023-04-07T08:47:40.527Z,10.94
2023-04-07T08:50:10.261Z,11.00
2023-04-07T08:52:46.251Z,11.07
2023-04-07T08:55:14.394Z,11.16
2023-04-07T08:57:44.141Z,11.23
2023-04-07T09:00:13.157Z,11.32
2023-04-07T09:02:47.975Z,11.37
2023-04-07T09:05:16.362Z,11.44
2023-04-07T09:07:44.983Z,11.54
2023-04-07T09:10:13.764Z,11.59
2023-04-07T09:12:43.048Z,11.57
2023-04-07T09:15:11.205Z,11.55
2023-04-07T09:17:45.364Z,11.56
2023-04-07T09:20:14.295Z,11.60
2023-04-07T09:22:43.790Z,11.62
2023-04-07T09:25:17.789Z,11.63
2023-04-07T09:27:59.436Z,11.68
2023-04-07T09:30:29.171Z,11.74
2023-04-07T09:32:58.769Z,11.83
2023-04-07T09:35:28.606Z,11.97
2023-04-07T09:38:09.908Z,12.07
2023-04-07T09:40:38.619Z,12.08
2023-04-07T09:43:07.786Z,12.03
2023-04-07T09:45:37.514Z,12.00
2023-04-07T09:48:08.920Z,12.02
2023-04-07T09:50:42.233Z,12.12
2023-04-07T09:53:11.142Z,12.21
2023-04-07T09:55:40.016Z,12.27
2023-04-07T09:58:08.635Z,12.33
2023-04-07T10:00:37.432Z,12.37
2023-04-07T10:03:06.104Z,12.46
2023-04-07T10:05:36.759Z,12.54
2023-04-07T10:08:06.880Z,12.61
2023-04-07T10:10:36.554Z,12.71
2023-04-07T10:13:31.631Z,12.86
2023-04-07T10:16:03.025Z,13.05
2023-04-07T10:18:32.954Z,13.17
2023-04-07T10:21:03.435Z,13.28
2023-04-07T10:23:50.639Z,13.39
2023-04-07T10:26:20.083Z,13.49
2023-04-07T10:28:50.159Z,13.59
2023-04-07T10:31:20.535Z,13.70
2023-04-07T10:33:54.067Z,13.78
2023-04-07T10:36:22.409Z,13.79
2023-04-07T10:39:08.578Z,13.79
2023-04-07T10:41:38.207Z,13.80
2023-04-07T10:44:07.025Z,13.72
2023-04-07T10:46:52.005Z,13.64
2023-04-07T11:01:27.004Z,13.81
2023-04-07T11:03:55.596Z,14.32
2023-04-07T11:06:22.432Z,14.46
2023-04-07T11:08:51.909Z,14.60
2023-04-07T11:11:34.809Z,14.73
2023-04-07T11:14:01.861Z,14.87
2023-04-07T11:16:55.826Z,14.96
2023-04-07T11:19:23.229Z,14.98
2023-04-07T11:21:51.073Z,15.03
2023-04-07T11:24:39.516Z,15.08
2023-04-07T11:27:11.863Z,15.05
2023-04-07T11:29:39.332Z,15.01
2023-04-07T11:32:06.812Z,14.94
2023-04-07T11:34:36.623Z,14.89
2023-04-07T11:37:28.235Z,14.88
2023-04-07T11:39:56.022Z,14.99
2023-04-07T11:42:32.702Z,15.08
2023-04-07T11:44:59.990Z,15.02
2023-04-07T11:47:37.568Z,14.98
2023-04-07T11:50:05.212Z,14.96
2023-04-07T11:52:46.523Z,14.97
2023-04-07T11:55:26.506Z,15.04
2023-04-07T11:57:53.284Z,15.11
2023-04-07T12:00:20.534Z,15.13
2023-04-07T12:02:47.860Z,15.17
2023-04-07T12:05:16.646Z,15.24
2023-04-07T12:07:52.422Z,15.31
2023-04-07T12:10:23.159Z,15.36
2023-04-07T12:12:55.240Z,15.42
2023-04-07T12:15:25.361Z,15.47
2023-04-07T12:17:52.796Z,15.47
2023-04-07T12:20:26.787Z,15.44
2023-04-07T12:22:53.719Z,15.44
2023-04-07T12:25:20.564Z,15.54
2023-04-07T12:27:51.773Z,15.69
2023-04-07T12:30:19.287Z,15.86
2023-04-07T12:32:47.067Z,15.99
2023-04-07T12:35:17.568Z,16.10
2023-04-07T12:37:46.162Z,16.21
2023-04-07T12:40:15.327Z,16.31
2023-04-07T12:42:41.998Z,16.39
2023-04-07T12:45:08.898Z,16.45
2023-04-07T12:47:36.551Z,16.57
2023-04-07T12:50:03.677Z,16.66
2023-04-07T12:52:36.273Z,16.70
2023-04-07T12:55:03.235Z,16.75
2023-04-07T12:57:30.591Z,16.84
2023-04-07T12:59:57.380Z,16.95
2023-04-07T13:02:25.198Z,17.03
2023-04-07T13:04:52.405Z,17.08
2023-04-07T13:07:19.316Z,17.09
2023-04-07T13:09:46.019Z,17.12
2023-04-07T13:12:13.334Z,17.19
2023-04-07T13:15:00.767Z,17.39
2023-04-07T13:17:29.228Z,17.62
2023-04-07T13:19:56.020Z,17.80
2023-04-07T13:22:24.611Z,17.89
2023-04-07T13:24:51.715Z,17.98
2023-04-07T13:27:18.501Z,18.27
2023-04-07T13:29:45.257Z,19.24
2023-04-07T13:32:14.797Z,20.76
2023-04-07T13:34:41.712Z,22.71
2023-04-07T13:37:08.410Z,24.70
2023-04-07T13:39:36.473Z,26.55
2023-04-07T13:42:04.090Z,28.09
2023-04-07T13:44:33.215Z,29.48
2023-04-07T13:47:00.324Z,30.64
2023-04-07T13:49:28.513Z,31.39
2023-04-07T13:51:55.363Z,31.91
2023-04-07T13:54:22.231Z,32.41
2023-04-07T13:56:50.117Z,32.41
2023-04-07T13:59:16.887Z,32.05
2023-04-07T14:01:43.891Z,31.70
2023-04-07T14:04:11.725Z,31.73
2023-04-07T14:06:38.577Z,32.12
2023-04-07T14:09:06.059Z,32.60
2023-04-07T14:11:34.761Z,33.17
2023-04-07T14:14:12.322Z,33.63
2023-04-07T14:16:40.158Z,34.00
2023-04-07T14:19:07.054Z,34.23
2023-04-07T14:21:36.863Z,34.45
2023-04-07T14:24:03.984Z,34.70
2023-04-07T14:26:30.669Z,34.87
2023-04-07T14:28:57.623Z,35.00
2023-04-07T14:31:24.297Z,35.08
2023-04-07T14:33:51.336Z,35.10
2023-04-07T14:36:18.489Z,35.01
2023-04-07T14:38:45.406Z,34.88
2023-04-07T14:41:12.523Z,34.46
2023-04-07T14:43:39.255Z,33.42
2023-04-07T14:46:06.543Z,32.64
2023-04-07T14:48:34.885Z,32.56
2023-04-07T14:51:09.287Z,32.70
2023-04-07T14:53:37.275Z,32.83
2023-04-07T14:56:07.160Z,32.72
2023-04-07T14:58:39.961Z,32.47
2023-04-07T15:01:06.944Z,32.46
2023-04-07T15:03:35.175Z,32.37
2023-04-07T15:06:06.093Z,32.35
2023-04-07T15:08:32.786Z,32.50
2023-04-07T15:10:59.737Z,32.64
2023-04-07T15:13:27.089Z,32.68
2023-04-07T15:15:53.798Z,32.64
2023-04-07T15:18:21.184Z,32.57
2023-04-07T15:20:48.765Z,32.46
2023-04-07T15:23:18.758Z,32.35
2023-04-07T15:25:46.958Z,32.18
2023-04-07T15:28:14.090Z,32.04
2023-04-07T15:30:42.356Z,31.94
2023-04-07T15:33:09.408Z,31.73
2023-04-07T15:35:36.250Z,31.57
2023-04-07T15:38:03.122Z,31.36
2023-04-07T15:40:29.743Z,31.14
2023-04-07T15:42:56.500Z,30.71
2023-04-07T15:45:23.261Z,30.00
2023-04-07T15:47:52.128Z,29.24
2023-04-07T15:50:19.328Z,28.63
2023-04-07T15:52:46.300Z,27.97
2023-04-07T15:55:13.080Z,27.09
2023-04-07T15:57:40.390Z,26.12
2023-04-07T16:00:07.893Z,25.15
2023-04-07T16:02:37.584Z,24.23
2023-04-07T16:05:04.940Z,23.48
2023-04-07T16:07:31.699Z,22.94
2023-04-07T16:09:58.434Z,22.53
2023-04-07T16:12:25.293Z,22.13
2023-04-07T16:14:51.968Z,21.78
2023-04-07T16:17:20.576Z,21.42
2023-04-07T16:19:48.498Z,21.02
2023-04-07T16:22:15.127Z,20.66
2023-04-07T16:24:42.420Z,20.34
2023-04-07T16:27:09.251Z,20.01
2023-04-07T16:29:36.273Z,19.64
2023-04-07T16:32:03.909Z,19.27
2023-04-07T16:34:30.812Z,18.94
2023-04-07T16:37:01.135Z,18.69
2023-04-07T16:39:29.555Z,18.53
2023-04-07T16:41:56.632Z,18.36
2023-04-07T16:44:28.788Z,18.22
2023-04-07T16:46:55.550Z,18.09
2023-04-07T16:49:23.298Z,17.94
2023-04-07T16:51:50.216Z,17.80
2023-04-07T16:54:16.931Z,17.71
2023-04-07T16:56:43.682Z,17.66
2023-04-07T16:59:10.776Z,17.58
2023-04-07T17:01:42.445Z,17.49
2023-04-07T17:04:10.261Z,17.40
2023-04-07T17:06:37.048Z,17.31
2023-04-07T17:09:03.682Z,17.20
2023-04-07T17:11:30.367Z,17.09
2023-04-07T17:13:57.784Z,16.98
2023-04-07T17:16:25.025Z,16.87
2023-04-07T17:18:52.020Z,16.76
2023-04-07T17:21:18.782Z,16.65
2023-04-07T17:23:48.933Z,16.55
2023-04-07T17:26:16.088Z,16.44
2023-04-07T17:28:45.044Z,16.32
2023-04-07T17:31:13.909Z,16.20
2023-04-07T17:33:41.540Z,16.11
2023-04-07T17:36:08.340Z,16.02
2023-04-07T17:38:35.791Z,15.94
2023-04-07T17:41:02.671Z,15.85
2023-04-07T17:43:33.274Z,15.73
2023-04-07T17:45:59.991Z,15.62
2023-04-07T17:48:27.079Z,15.51
2023-04-07T17:50:53.696Z,15.46
2023-04-07T17:53:20.643Z,15.44
2023-04-07T17:55:51.464Z,15.39
2023-04-07T17:58:22.546Z,15.33
2023-04-07T18:00:50.133Z,15.30
2023-04-07T18:03:18.812Z,15.26
2023-04-07T18:05:46.301Z,15.23
2023-04-07T18:08:12.943Z,15.22
2023-04-07T18:10:39.812Z,15.20
2023-04-07T18:13:07.282Z,15.17
2023-04-07T18:15:34.405Z,15.14
2023-04-07T18:18:01.882Z,15.10
2023-04-07T18:20:30.964Z,15.05
2023-04-07T18:22:57.964Z,14.98
2023-04-07T18:25:25.124Z,14.95
2023-04-07T18:27:52.753Z,14.92
2023-04-07T18:30:19.669Z,14.85
2023-04-07T18:32:46.749Z,14.86
2023-04-07T18:35:13.552Z,14.83
2023-04-07T18:37:43.656Z,14.83
2023-04-07T18:40:11.802Z,14.82
2023-04-07T18:42:40.162Z,14.74
2023-04-07T18:45:08.210Z,14.67
2023-04-07T18:47:35.065Z,14.66
2023-04-07T18:50:02.784Z,14.66
2023-04-07T18:52:29.756Z,14.64
2023-04-07T18:54:57.559Z,14.62
2023-04-07T18:57:24.294Z,14.60
2023-04-07T18:59:52.288Z,14.58
2023-04-07T19:02:19.155Z,14.54
2023-04-07T19:04:46.129Z,14.53
2023-04-07T19:07:13.104Z,14.51
2023-04-07T19:09:41.836Z,14.49
2023-04-07T19:12:08.922Z,14.44
2023-04-07T19:14:35.730Z,14.40
2023-04-07T19:17:04.092Z,14.36
2023-04-07T19:19:31.699Z,14.35
2023-04-07T19:22:01.958Z,14.38
2023-04-07T19:24:29.033Z,14.30
2023-04-07T19:26:56.299Z,14.23
2023-04-07T19:29:23.149Z,14.18
2023-04-07T19:31:52.296Z,14.17
2023-04-07T19:34:19.409Z,14.14
2023-04-07T19:36:46.182Z,14.06
2023-04-07T19:39:13.098Z,13.99
2023-04-07T19:41:41.339Z,13.92
2023-04-07T19:44:08.100Z,13.88
2023-04-07T19:46:35.980Z,13.84
2023-04-07T19:49:03.642Z,13.78
2023-04-07T19:51:31.179Z,13.76
2023-04-07T19:53:57.945Z,13.71
2023-04-07T19:56:24.715Z,13.66
2023-04-07T19:58:51.628Z,13.63
2023-04-07T20:01:18.568Z,13.60
2023-04-07T20:03:46.121Z,13.59
2023-04-07T20:06:14.323Z,13.59
2023-04-07T20:08:42.990Z,13.58
2023-04-07T20:11:12.097Z,13.56
2023-04-07T20:13:42.535Z,13.56
2023-04-07T20:16:09.555Z,13.53
2023-04-07T20:18:36.714Z,13.52
2023-04-07T20:21:09.196Z,13.52
2023-04-07T20:23:35.984Z,13.52
2023-04-07T20:26:02.983Z,13.52
2023-04-07T20:28:30.458Z,13.51
2023-04-07T20:30:57.420Z,13.48
2023-04-07T20:33:24.334Z,13.45
2023-04-07T20:35:51.932Z,13.43
2023-04-07T20:38:19.562Z,13.41
2023-04-07T20:40:46.660Z,13.40
2023-04-07T20:43:14.565Z,13.39
2023-04-07T20:45:41.778Z,13.38
2023-04-07T20:48:08.748Z,13.37
2023-04-07T20:50:35.980Z,13.37
2023-04-07T20:53:06.401Z,13.36
2023-04-07T20:55:33.987Z,13.34
2023-04-07T20:58:00.762Z,13.33
2023-04-07T21:00:28.628Z,13.31
2023-04-07T21:02:56.755Z,13.29
2023-04-07T21:05:23.775Z,13.26
2023-04-07T21:07:50.508Z,13.21
2023-04-07T21:10:17.470Z,13.16
2023-04-07T21:12:44.234Z,13.10
2023-04-07T21:15:17.284Z,13.01
2023-04-07T21:17:45.480Z,12.97
2023-04-07T21:20:12.331Z,12.97
2023-04-07T21:22:42.308Z,12.96
2023-04-07T21:25:09.268Z,13.03
2023-04-07T21:27:37.620Z,13.15
2023-04-07T21:30:05.934Z,13.21
2023-04-07T21:32:33.284Z,13.23
2023-04-07T21:35:00.247Z,13.23
2023-04-07T21:37:27.244Z,13.20
2023-04-07T21:39:54.105Z,13.17
2023-04-07T21:42:21.900Z,13.15
2023-04-07T21:44:48.734Z,13.12
2023-04-07T21:47:16.990Z,13.09
2023-04-07T21:49:43.683Z,13.06
2023-04-07T21:52:10.786Z,13.01
2023-04-07T21:54:38.916Z,12.95
2023-04-07T21:57:07.884Z,12.90
2023-04-07T21:59:36.550Z,12.93
2023-04-07T22:02:03.951Z,12.96
2023-04-07T22:04:31.379Z,12.97
2023-04-07T22:06:58.577Z,12.97
2023-04-07T22:09:26.554Z,12.97
2023-04-07T22:11:59.995Z,12.97
2023-04-07T22:14:26.767Z,12.95
2023-04-07T22:16:53.526Z,12.93
2023-04-07T22:19:27.746Z,12.88
2023-04-07T22:21:54.903Z,12.85
2023-04-07T22:24:21.814Z,12.80
2023-04-07T22:26:53.369Z,12.75
2023-04-07T22:29:20.812Z,12.80
2023-04-07T22:31:47.984Z,12.90
2023-04-07T22:34:15.780Z,12.94
2023-04-07T22:36:42.547Z,12.97
2023-04-07T22:39:09.499Z,13.03
2023-04-07T22:41:36.854Z,13.09
2023-04-07T22:44:07.939Z,13.13
2023-04-07T22:46:35.280Z,13.13
2023-04-07T22:49:02.288Z,13.06
2023-04-07T22:51:29.517Z,12.98
2023-04-07T22:53:56.587Z,12.92
2023-04-07T22:56:27.635Z,12.90
2023-04-07T22:58:54.624Z,12.87
2023-04-07T23:01:21.558Z,12.82
2023-04-07T23:03:48.872Z,12.86
2023-04-07T23:08:48.830Z,12.72
2023-04-07T23:11:17.112Z,12.89
2023-04-07T23:13:45.758Z,12.91
2023-04-07T23:16:14.961Z,12.83
2023-04-07T23:18:43.829Z,12.68
2023-04-07T23:21:12.087Z,12.54
2023-04-07T23:23:40.689Z,12.46
2023-04-07T23:26:08.644Z,12.42
2023-04-07T23:28:36.827Z,12.36
2023-04-07T23:31:06.702Z,12.31
2023-04-07T23:33:35.246Z,12.32
2023-04-07T23:36:28.999Z,12.33
2023-04-07T23:38:57.123Z,12.31
2023-04-07T23:41:25.603Z,12.26
2023-04-07T23:43:53.740Z,12.19
2023-04-07T23:46:21.926Z,12.19
2023-04-07T23:48:51.073Z,12.21
2023-04-07T23:51:19.771Z,12.23
2023-04-07T23:53:47.796Z,12.29
2023-04-07T23:56:16.275Z,12.36
2023-04-07T23:58:44.380Z,12.41
